createdAt,value
2022-12-31T00:00:16.409Z,8.20
2022-12-31T00:02:43.343Z,8.20
2022-12-31T00:05:10.690Z,8.10
2022-12-31T00:10:04.560Z,8.10
2022-12-31T00:12:31.578Z,8.20
2022-12-31T00:14:58.403Z,8.10
2022-12-31T00:17:25.281Z,8.20
2022-12-31T00:19:52.158Z,8.20
2022-12-31T00:22:19.049Z,8.20
2022-12-31T00:24:45.890Z,8.40
2022-12-31T00:27:12.969Z,8.50
2022-12-31T00:29:39.790Z,8.50
2022-12-31T00:32:06.623Z,8.50
2022-12-31T00:34:33.439Z,8.60
2022-12-31T00:37:00.289Z,8.50
2022-12-31T00:39:27.197Z,8.40
2022-12-31T00:41:54.040Z,8.50
2022-12-31T00:44:21.015Z,8.50
2022-12-31T00:46:48.413Z,8.50
2022-12-31T00:49:15.431Z,8.40
2022-12-31T00:51:42.442Z,8.40
2022-12-31T00:54:10.079Z,8.50
2022-12-31T00:56:36.870Z,8.50
2022-12-31T00:59:03.999Z,8.60
2022-12-31T01:01:38.175Z,8.70
2022-12-31T01:04:18.933Z,8.60
2022-12-31T01:06:46.348Z,8.50
2022-12-31T01:09:15.410Z,8.50
2022-12-31T01:11:42.701Z,8.40
2022-12-31T01:14:16.450Z,8.50
2022-12-31T01:16:53.033Z,8.60
2022-12-31T01:19:27.339Z,8.60
2022-12-31T01:21:55.583Z,8.50
2022-12-31T01:24:22.792Z,8.30
2022-12-31T01:26:51.160Z,8.30
2022-12-31T01:29:18.448Z,8.30
2022-12-31T01:31:45.464Z,8.20
2022-12-31T01:34:12.326Z,8.20
2022-12-31T01:36:39.676Z,8.20
2022-12-31T01:39:08.498Z,8.10
2022-12-31T01:41:42.585Z,8.20
2022-12-31T01:44:12.476Z,8.20
2022-12-31T01:46:56.857Z,8.20
2022-12-31T01:49:48.278Z,8.10
2022-12-31T01:52:41.857Z,8.30
2022-12-31T01:55:20.724Z,8.40
2022-12-31T01:57:53.347Z,8.20
2022-12-31T02:00:20.302Z,8.10
2022-12-31T02:02:47.266Z,8.10
2022-12-31T02:05:33.795Z,8.20
2022-12-31T02:08:00.865Z,8.20
2022-12-31T02:10:27.665Z,8.30
2022-12-31T02:12:54.654Z,8.20
2022-12-31T02:15:50.195Z,8.20
2022-12-31T02:22:38.846Z,8.10
2022-12-31T02:25:23.638Z,7.90
2022-12-31T02:28:18.922Z,7.80
2022-12-31T02:30:51.333Z,8.00
2022-12-31T02:33:34.819Z,7.90
2022-12-31T02:36:26.772Z,7.90
2022-12-31T02:38:55.039Z,8.10
2022-12-31T02:41:40.736Z,8.30
2022-12-31T02:44:33.991Z,8.30
2022-12-31T02:47:21.540Z,8.50
2022-12-31T02:50:22.461Z,8.70
2022-12-31T02:52:50.025Z,8.60
2022-12-31T02:55:43.347Z,8.70
2022-12-31T02:58:56.457Z,8.90
2022-12-31T03:01:52.028Z,8.70
2022-12-31T03:04:32.471Z,8.60
2022-12-31T03:07:08.773Z,8.90
2022-12-31T03:09:36.931Z,8.90
2022-12-31T03:12:29.195Z,8.90
2022-12-31T03:14:56.479Z,8.90
2022-12-31T03:17:23.952Z,9.10
2022-12-31T03:20:10.339Z,9.10
2022-12-31T03:22:41.259Z,9.10
2022-12-31T03:25:32.087Z,9.10
2022-12-31T03:28:01.434Z,9.10
2022-12-31T03:30:29.140Z,9.10
2022-12-31T03:32:57.239Z,9.20
2022-12-31T03:35:26.802Z,9.30
2022-12-31T03:37:54.621Z,9.30
2022-12-31T03:40:24.142Z,9.30
2022-12-31T03:42:51.162Z,9.20
2022-12-31T03:45:18.166Z,9.30
2022-12-31T03:47:45.270Z,9.40
2022-12-31T03:50:15.137Z,9.40
2022-12-31T03:52:42.549Z,9.40
2022-12-31T03:55:10.723Z,9.30
2022-12-31T03:57:38.542Z,9.40
2022-12-31T04:00:09.362Z,9.50
2022-12-31T04:02:36.723Z,9.30
2022-12-31T04:05:04.368Z,9.40
2022-12-31T04:07:31.268Z,9.40
2022-12-31T04:09:58.466Z,9.40
2022-12-31T04:12:25.286Z,9.40
2022-12-31T04:14:52.170Z,9.40
2022-12-31T04:17:18.981Z,9.50
2022-12-31T04:19:45.829Z,9.40
2022-12-31T04:22:12.722Z,9.40
2022-12-31T04:24:39.559Z,9.20
2022-12-31T04:27:07.974Z,9.20
2022-12-31T04:29:35.852Z,9.20
2022-12-31T04:32:04.683Z,9.40
2022-12-31T04:34:32.202Z,9.20
2022-12-31T04:36:59.707Z,9.20
2022-12-31T04:39:26.947Z,9.10
2022-12-31T04:41:54.180Z,8.90
2022-12-31T04:44:21.398Z,9.00
2022-12-31T04:46:48.343Z,9.10
2022-12-31T04:49:15.278Z,9.00
2022-12-31T04:51:42.094Z,9.00
2022-12-31T04:54:08.888Z,9.10
2022-12-31T04:56:36.734Z,9.10
2022-12-31T04:59:05.399Z,9.20
2022-12-31T05:01:34.594Z,9.30
2022-12-31T05:04:01.555Z,9.30
2022-12-31T05:06:30.476Z,9.20
2022-12-31T05:08:58.330Z,9.30
2022-12-31T05:11:25.199Z,9.30
2022-12-31T05:13:52.070Z,9.20
2022-12-31T05:16:20.166Z,9.30
2022-12-31T05:18:47.199Z,9.20
2022-12-31T05:21:21.907Z,9.20
2022-12-31T05:23:50.866Z,9.30
2022-12-31T05:26:18.070Z,9.30
2022-12-31T05:28:45.619Z,9.20
2022-12-31T05:31:12.795Z,9.40
2022-12-31T05:33:40.535Z,9.40
2022-12-31T05:36:07.828Z,9.40
2022-12-31T05:38:37.383Z,9.50
2022-12-31T05:41:08.078Z,9.50
2022-12-31T05:43:36.836Z,9.50
2022-12-31T05:46:06.180Z,9.50
2022-12-31T05:48:33.362Z,9.50
2022-12-31T05:51:02.008Z,9.50
2022-12-31T05:53:28.990Z,9.60
2022-12-31T05:55:56.809Z,9.50
2022-12-31T05:58:25.282Z,9.40
2022-12-31T06:00:52.662Z,9.50
2022-12-31T06:03:19.613Z,9.50
2022-12-31T06:05:46.481Z,9.40
2022-12-31T06:08:14.290Z,9.50
2022-12-31T06:10:41.167Z,9.40
2022-12-31T06:13:09.282Z,9.50
2022-12-31T06:15:41.196Z,9.50
2022-12-31T06:18:08.857Z,9.40
2022-12-31T06:20:38.057Z,9.40
2022-12-31T06:23:06.959Z,9.50
2022-12-31T06:25:37.491Z,9.40
2022-12-31T06:28:06.626Z,9.40
2022-12-31T06:30:33.508Z,9.50
2022-12-31T06:33:00.362Z,9.40
2022-12-31T06:35:27.432Z,9.50
2022-12-31T06:37:56.449Z,9.50
2022-12-31T06:40:23.479Z,9.50
2022-12-31T06:42:56.007Z,9.60
2022-12-31T06:45:26.483Z,9.60
2022-12-31T06:47:53.326Z,9.60
2022-12-31T06:50:21.069Z,9.70
2022-12-31T06:52:47.874Z,9.80
2022-12-31T06:55:17.926Z,9.90
2022-12-31T06:57:46.625Z,9.90
2022-12-31T07:00:14.501Z,10.00
2022-12-31T07:02:57.708Z,10.10
2022-12-31T07:05:28.509Z,10.00
2022-12-31T07:08:15.496Z,10.00
2022-12-31T07:10:54.179Z,10.00
2022-12-31T07:13:51.143Z,10.00
2022-12-31T07:16:48.363Z,10.10
2022-12-31T07:20:08.562Z,9.90
2022-12-31T07:22:35.997Z,10.00
2022-12-31T07:25:03.907Z,10.10
2022-12-31T07:27:42.616Z,10.20
2022-12-31T07:30:15.699Z,10.20
2022-12-31T07:32:52.712Z,10.20
2022-12-31T07:36:00.134Z,10.20
2022-12-31T07:39:06.126Z,10.20
2022-12-31T07:41:53.316Z,10.20
2022-12-31T07:44:35.363Z,10.20
2022-12-31T07:47:05.411Z,10.30
2022-12-31T07:49:34.228Z,10.30
2022-12-31T07:52:01.503Z,10.20
2022-12-31T07:54:28.340Z,10.30
2022-12-31T07:56:55.286Z,10.20
2022-12-31T07:59:43.845Z,10.30
2022-12-31T08:02:39.625Z,10.30
2022-12-31T08:05:48.892Z,10.30
2022-12-31T08:08:39.548Z,10.30
2022-12-31T08:11:32.189Z,10.20
2022-12-31T08:14:03.360Z,10.20
2022-12-31T08:16:30.964Z,10.20
2022-12-31T08:18:59.241Z,10.30
2022-12-31T08:21:58.886Z,10.40
2022-12-31T08:24:35.802Z,10.50
2022-12-31T08:27:24.295Z,10.50
2022-12-31T08:30:28.657Z,10.50
2022-12-31T08:33:26.668Z,10.50
2022-12-31T08:36:24.107Z,10.50
2022-12-31T08:39:20.883Z,10.60
2022-12-31T08:41:56.580Z,10.60
2022-12-31T08:44:47.960Z,10.80
2022-12-31T08:47:38.588Z,10.80
2022-12-31T08:50:13.136Z,10.80
2022-12-31T08:52:41.892Z,10.80
2022-12-31T08:55:35.589Z,10.90
2022-12-31T08:59:08.454Z,10.90
2022-12-31T09:02:07.388Z,11.00
2022-12-31T09:05:23.851Z,11.00
2022-12-31T09:08:27.682Z,11.10
2022-12-31T09:11:05.795Z,11.10
2022-12-31T09:14:21.756Z,11.30
2022-12-31T09:16:59.531Z,11.30
2022-12-31T09:19:27.391Z,11.40
2022-12-31T09:21:55.253Z,11.60
2022-12-31T09:24:22.474Z,11.70
2022-12-31T09:27:16.139Z,11.80
2022-12-31T09:30:11.935Z,11.80
2022-12-31T09:33:03.310Z,12.00
2022-12-31T09:35:54.088Z,12.00
2022-12-31T09:38:53.289Z,12.10
2022-12-31T09:41:47.691Z,12.30
2022-12-31T09:45:00.592Z,12.30
2022-12-31T09:48:44.359Z,12.40
2022-12-31T09:51:30.787Z,12.40
2022-12-31T09:54:47.056Z,12.30
2022-12-31T09:57:26.145Z,12.30
2022-12-31T10:00:11.910Z,12.50
2022-12-31T10:03:30.563Z,12.60
2022-12-31T10:06:33.165Z,12.70
2022-12-31T10:09:25.813Z,12.90
2022-12-31T10:12:27.551Z,13.00
2022-12-31T10:15:21.483Z,13.00
2022-12-31T10:18:18.758Z,13.00
2022-12-31T10:21:06.150Z,13.00
2022-12-31T10:24:11.961Z,13.10
2022-12-31T10:26:42.130Z,12.90
2022-12-31T10:29:32.355Z,12.90
2022-12-31T10:32:31.238Z,13.00
2022-12-31T10:35:41.839Z,12.90
2022-12-31T10:38:47.714Z,12.90
2022-12-31T10:42:18.332Z,13.00
2022-12-31T10:45:23.493Z,13.00
2022-12-31T10:48:19.198Z,13.20
2022-12-31T10:51:32.368Z,13.30
2022-12-31T10:55:00.890Z,13.30
2022-12-31T10:58:17.088Z,13.40
2022-12-31T11:01:13.622Z,13.60
2022-12-31T11:04:31.368Z,13.50
2022-12-31T11:07:39.895Z,13.50
2022-12-31T11:10:53.912Z,13.50
2022-12-31T11:13:35.337Z,13.60
2022-12-31T11:16:30.139Z,13.60
2022-12-31T11:19:04.074Z,13.50
2022-12-31T11:21:49.231Z,13.60
2022-12-31T11:24:22.943Z,13.70
2022-12-31T11:26:55.499Z,13.60
2022-12-31T11:30:18.158Z,13.70
2022-12-31T11:33:22.514Z,13.70
2022-12-31T11:36:32.383Z,13.90
2022-12-31T11:39:35.750Z,13.70
2022-12-31T11:42:32.681Z,13.80
2022-12-31T11:45:34.808Z,13.70
2022-12-31T11:48:54.337Z,13.70
2022-12-31T11:55:40.985Z,13.70
2022-12-31T11:58:19.280Z,13.80
2022-12-31T12:01:01.474Z,13.80
2022-12-31T12:03:28.515Z,13.80
2022-12-31T12:05:57.852Z,14.00
2022-12-31T12:08:29.156Z,13.80
2022-12-31T12:11:07.115Z,13.80
2022-12-31T12:13:34.565Z,13.90
2022-12-31T12:16:06.783Z,13.80
2022-12-31T12:19:08.689Z,14.00
2022-12-31T12:21:46.612Z,14.00
2022-12-31T12:24:26.762Z,14.10
2022-12-31T12:28:27.764Z,14.10
2022-12-31T12:31:04.176Z,14.30
2022-12-31T12:33:43.693Z,14.30
2022-12-31T12:36:16.777Z,14.40
2022-12-31T12:38:44.167Z,14.50
2022-12-31T12:41:21.755Z,14.60
2022-12-31T12:43:48.590Z,14.60
2022-12-31T12:46:48.249Z,14.70
2022-12-31T12:49:27.446Z,14.70
2022-12-31T12:52:42.485Z,14.70
2022-12-31T12:55:27.878Z,14.80
2022-12-31T12:58:22.361Z,14.80
2022-12-31T13:01:01.024Z,14.70
2022-12-31T13:04:31.903Z,14.80
2022-12-31T13:06:50.730Z,14.80
2022-12-31T13:09:42.235Z,14.90
2022-12-31T13:12:23.169Z,15.00
2022-12-31T13:15:17.054Z,15.00
2022-12-31T13:18:15.343Z,14.80
2022-12-31T13:20:53.868Z,14.80
2022-12-31T13:23:45.731Z,14.70
2022-12-31T13:26:34.378Z,14.60
2022-12-31T13:29:03.426Z,14.70
2022-12-31T13:31:39.781Z,14.70
2022-12-31T13:34:24.090Z,14.60
2022-12-31T13:36:54.550Z,14.50
2022-12-31T13:39:27.722Z,14.50
2022-12-31T13:42:25.844Z,14.70
2022-12-31T13:45:03.020Z,14.70
2022-12-31T13:47:44.703Z,14.70
2022-12-31T13:50:48.162Z,14.50
2022-12-31T13:53:38.840Z,14.70
2022-12-31T13:56:18.349Z,14.90
2022-12-31T13:58:54.687Z,14.80
2022-12-31T14:01:41.311Z,14.80
2022-12-31T14:04:37.577Z,14.70
2022-12-31T14:07:40.414Z,14.60
2022-12-31T14:10:16.669Z,14.60
2022-12-31T14:13:03.955Z,14.60
2022-12-31T14:16:12.259Z,14.50
2022-12-31T14:18:54.534Z,14.50
2022-12-31T14:21:40.839Z,14.40
2022-12-31T14:24:45.903Z,14.40
2022-12-31T14:27:35.922Z,14.30
2022-12-31T14:30:18.307Z,14.30
2022-12-31T14:33:05.470Z,14.20
2022-12-31T14:35:47.613Z,14.20
2022-12-31T14:38:38.980Z,14.10
2022-12-31T14:41:37.006Z,14.10
2022-12-31T14:44:19.726Z,13.90
2022-12-31T14:47:06.850Z,13.90
2022-12-31T14:50:13.899Z,13.80
2022-12-31T14:55:41.409Z,13.70
2022-12-31T14:58:55.409Z,13.70
2022-12-31T15:01:25.853Z,13.60
2022-12-31T15:03:57.766Z,13.50
2022-12-31T15:06:24.653Z,13.50
2022-12-31T15:09:28.467Z,13.40
2022-12-31T15:12:11.874Z,13.30
2022-12-31T15:14:44.421Z,13.20
2022-12-31T15:17:44.624Z,13.10
2022-12-31T15:21:04.242Z,13.00
2022-12-31T15:23:37.470Z,12.80
2022-12-31T15:26:05.590Z,12.80
2022-12-31T15:28:37.079Z,12.80
2022-12-31T15:31:20.854Z,12.70
2022-12-31T15:34:32.945Z,12.70
2022-12-31T15:37:04.958Z,12.50
2022-12-31T15:39:32.125Z,12.50
2022-12-31T15:42:36.902Z,12.50
2022-12-31T15:45:14.528Z,12.30
2022-12-31T15:47:46.971Z,12.30
2022-12-31T15:50:21.831Z,12.30
2022-12-31T15:53:01.212Z,12.20
2022-12-31T15:55:44.758Z,12.20
2022-12-31T15:58:16.459Z,12.10
2022-12-31T16:01:04.885Z,11.90
2022-12-31T16:03:32.656Z,11.90
2022-12-31T16:06:12.805Z,11.70
2022-12-31T16:08:45.801Z,11.70
2022-12-31T16:11:12.869Z,11.60
2022-12-31T16:13:42.943Z,11.60
2022-12-31T16:16:25.052Z,11.50
2022-12-31T16:18:56.037Z,11.40
2022-12-31T16:21:38.348Z,11.30
2022-12-31T16:24:30.406Z,11.30
2022-12-31T16:27:02.373Z,11.10
2022-12-31T16:29:30.804Z,11.00
2022-12-31T16:31:57.962Z,11.00
2022-12-31T16:34:28.337Z,10.90
2022-12-31T16:37:05.140Z,10.90
2022-12-31T16:39:35.723Z,10.80
2022-12-31T16:42:18.951Z,10.80
2022-12-31T16:44:47.172Z,10.70
2022-12-31T16:47:21.387Z,10.70
2022-12-31T16:50:20.598Z,10.60
2022-12-31T16:52:50.728Z,10.50
2022-12-31T16:55:25.633Z,10.50
2022-12-31T16:58:27.185Z,10.40
2022-12-31T17:01:01.846Z,10.30
2022-12-31T17:03:29.732Z,10.20
2022-12-31T17:06:07.711Z,10.20
2022-12-31T17:09:00.789Z,10.20
2022-12-31T17:11:30.821Z,10.20
2022-12-31T17:14:17.324Z,10.20
2022-12-31T17:17:02.630Z,10.20
2022-12-31T17:19:43.218Z,10.20
2022-12-31T17:22:40.886Z,10.30
2022-12-31T17:25:24.682Z,10.30
2022-12-31T17:28:03.211Z,10.30
2022-12-31T17:30:29.968Z,10.20
2022-12-31T17:33:03.935Z,10.20
2022-12-31T17:35:37.420Z,10.20
2022-12-31T17:38:32.583Z,10.10
2022-12-31T17:41:27.345Z,10.10
2022-12-31T17:43:56.804Z,10.10
2022-12-31T17:46:27.967Z,10.00
2022-12-31T17:49:01.699Z,10.00
2022-12-31T17:51:28.499Z,10.00
2022-12-31T17:53:55.311Z,9.90
2022-12-31T17:56:22.390Z,9.90
2022-12-31T17:58:52.473Z,9.90
2022-12-31T18:01:22.628Z,10.00
2022-12-31T18:03:50.051Z,10.00
2022-12-31T18:06:19.262Z,10.00
2022-12-31T18:08:46.131Z,10.00
2022-12-31T18:11:20.537Z,10.00
2022-12-31T18:13:48.058Z,10.00
2022-12-31T18:16:15.424Z,10.00
2022-12-31T18:18:43.667Z,10.00
2022-12-31T18:21:27.179Z,10.00
2022-12-31T18:26:24.406Z,10.00
2022-12-31T18:28:52.284Z,10.00
2022-12-31T18:31:28.846Z,10.00
2022-12-31T18:33:58.083Z,9.80
2022-12-31T18:36:29.172Z,9.90
2022-12-31T18:38:56.262Z,9.80
2022-12-31T18:41:27.654Z,9.90
2022-12-31T18:43:55.606Z,9.90
2022-12-31T18:46:24.793Z,9.80
2022-12-31T18:48:51.777Z,9.80
2022-12-31T18:51:25.093Z,9.80
2022-12-31T18:53:53.436Z,9.70
2022-12-31T18:56:21.958Z,9.70
2022-12-31T18:58:49.226Z,9.70
2022-12-31T19:01:42.200Z,9.70
2022-12-31T19:04:26.547Z,9.70
2022-12-31T19:06:55.004Z,9.60
2022-12-31T19:12:13.181Z,9.80
2022-12-31T19:14:40.523Z,9.80
2022-12-31T19:19:34.613Z,9.70
2022-12-31T19:22:02.577Z,9.80
2022-12-31T19:24:29.604Z,9.90
2022-12-31T19:26:56.491Z,9.90
2022-12-31T19:29:27.220Z,9.90
2022-12-31T19:31:54.760Z,9.90
2022-12-31T19:34:21.710Z,9.90
2022-12-31T19:36:48.648Z,9.90
2022-12-31T19:39:21.459Z,9.80
2022-12-31T19:41:54.655Z,9.80
2022-12-31T19:44:25.299Z,9.90
2022-12-31T19:46:52.234Z,9.90
2022-12-31T19:49:19.093Z,10.00
2022-12-31T19:51:46.048Z,10.00
2022-12-31T19:54:13.857Z,10.00
2022-12-31T19:56:41.314Z,10.00
2022-12-31T19:59:10.206Z,10.10
2022-12-31T20:01:37.919Z,10.10
2022-12-31T20:04:05.156Z,10.10
2022-12-31T20:06:32.297Z,10.00
2022-12-31T20:08:59.175Z,10.10
2022-12-31T20:11:25.998Z,10.10
2022-12-31T20:13:56.395Z,10.10
2022-12-31T20:16:26.886Z,10.10
2022-12-31T20:18:54.053Z,10.00
2022-12-31T20:21:27.246Z,9.90
2022-12-31T20:23:55.171Z,9.90
2022-12-31T20:26:24.480Z,9.70
2022-12-31T20:28:52.357Z,9.80
2022-12-31T20:31:25.278Z,9.60
2022-12-31T20:33:54.176Z,9.70
2022-12-31T20:36:21.863Z,9.70
2022-12-31T20:38:49.048Z,9.80
2022-12-31T20:41:22.120Z,9.80
2022-12-31T20:43:49.667Z,9.80
2022-12-31T20:46:20.586Z,9.70
2022-12-31T20:48:49.566Z,9.50
2022-12-31T20:51:17.881Z,9.50
2022-12-31T20:53:57.420Z,9.60
2022-12-31T20:56:26.961Z,9.60
2022-12-31T20:58:53.819Z,9.60
2022-12-31T21:01:21.608Z,9.60
2022-12-31T21:04:06.194Z,9.50
2022-12-31T21:06:35.187Z,9.60
2022-12-31T21:09:05.612Z,9.60
2022-12-31T21:11:50.846Z,9.50
2022-12-31T21:14:17.801Z,9.40
2022-12-31T21:16:44.652Z,9.50
2022-12-31T21:19:11.580Z,9.30
2022-12-31T21:21:38.473Z,9.40
2022-12-31T21:24:05.838Z,9.30
2022-12-31T21:26:32.805Z,9.30
2022-12-31T21:28:59.813Z,9.10
2022-12-31T21:31:27.120Z,9.20
2022-12-31T21:33:55.206Z,9.30
2022-12-31T21:36:22.077Z,9.10
2022-12-31T21:38:49.233Z,9.10
2022-12-31T21:41:35.261Z,9.10
2022-12-31T21:44:02.815Z,9.00
2022-12-31T21:46:30.023Z,8.90
2022-12-31T21:49:00.758Z,8.80
2022-12-31T21:51:29.007Z,8.80
2022-12-31T21:53:56.645Z,8.70
2022-12-31T21:56:24.082Z,8.70
2022-12-31T21:59:17.429Z,8.70
2022-12-31T22:02:02.804Z,8.80
2022-12-31T22:07:16.741Z,8.90
2022-12-31T22:09:43.644Z,8.90
2022-12-31T22:12:10.455Z,8.90
2022-12-31T22:14:37.253Z,9.00
2022-12-31T22:17:04.136Z,9.00
2022-12-31T22:19:30.998Z,9.00
2022-12-31T22:21:57.846Z,9.00
2022-12-31T22:24:24.715Z,9.00
2022-12-31T22:26:53.884Z,9.00
2022-12-31T22:29:21.508Z,9.10
2022-12-31T22:31:48.310Z,9.10
2022-12-31T22:34:15.464Z,9.10
2022-12-31T22:36:42.319Z,9.00
2022-12-31T22:39:44.046Z,8.90
2022-12-31T22:42:02.584Z,8.80
2022-12-31T22:44:29.443Z,8.90
2022-12-31T22:46:56.454Z,8.90
2022-12-31T22:49:23.348Z,8.90
2022-12-31T22:51:57.671Z,8.90
2022-12-31T22:54:27.679Z,8.80
2022-12-31T22:56:54.509Z,8.70
2022-12-31T22:59:21.472Z,8.60
2022-12-31T23:01:48.346Z,8.60
2022-12-31T23:04:15.685Z,8.60
2022-12-31T23:06:45.216Z,8.70
2022-12-31T23:09:33.323Z,8.70
2022-12-31T23:12:00.592Z,8.70
2022-12-31T23:14:45.844Z,8.70
2022-12-31T23:17:38.110Z,8.60
2022-12-31T23:20:26.392Z,8.60
2022-12-31T23:23:08.311Z,8.50
2022-12-31T23:25:45.434Z,8.40
2022-12-31T23:28:16.888Z,8.40
2022-12-31T23:30:44.221Z,8.40
2022-12-31T23:33:21.607Z,8.50
2022-12-31T23:35:49.135Z,8.40
2022-12-31T23:38:18.721Z,8.40
2022-12-31T23:40:46.125Z,8.30
2022-12-31T23:43:21.841Z,8.30
2022-12-31T23:45:50.589Z,8.30
2022-12-31T23:48:17.417Z,8.20
2022-12-31T23:50:49.206Z,8.20
2022-12-31T23:53:19.497Z,8.20
2022-12-31T23:55:46.350Z,8.10
2022-12-31T23:58:13.606Z,8.10
